createdAt,value
2022-12-28T00:01:48.347Z,98264.50
2022-12-28T00:04:15.940Z,98267.72
2022-12-28T00:06:43.338Z,98266.88
2022-12-28T00:09:13.180Z,98268.50
2022-12-28T00:11:40.732Z,98259.13
2022-12-28T00:14:08.387Z,98263.31
2022-12-28T00:16:41.095Z,98258.00
2022-12-28T00:19:16.979Z,98261.03
2022-12-28T00:21:46.831Z,98262.81
2022-12-28T00:24:23.287Z,98258.84
2022-12-28T00:26:51.240Z,98261.81
2022-12-28T00:29:20.224Z,98255.16
2022-12-28T00:31:47.523Z,98259.31
2022-12-28T00:34:15.198Z,98256.38
2022-12-28T00:37:08.571Z,98254.84
2022-12-28T00:39:30.328Z,98259.00
2022-12-28T00:41:57.546Z,98267.25
2022-12-28T00:44:24.800Z,98272.47
2022-12-28T00:46:52.254Z,98272.59
2022-12-28T00:49:19.474Z,98275.13
2022-12-28T00:51:47.241Z,98271.97
2022-12-28T00:54:14.523Z,98270.22
2022-12-28T00:56:43.104Z,98267.66
2022-12-28T00:59:10.877Z,98269.19
2022-12-28T01:01:38.664Z,98269.03
2022-12-28T01:04:06.076Z,98267.78
2022-12-28T01:06:33.304Z,98271.78
2022-12-28T01:09:00.729Z,98267.09
2022-12-28T01:11:31.911Z,98264.06
2022-12-28T01:14:02.842Z,98267.00
2022-12-28T01:16:34.665Z,98266.91
2022-12-28T01:19:05.691Z,98269.91
2022-12-28T01:21:35.251Z,98273.31
2022-12-28T01:24:05.888Z,98264.25
2022-12-28T01:26:33.508Z,98262.88
2022-12-28T01:29:00.878Z,98270.59
2022-12-28T01:31:28.615Z,98263.63
2022-12-28T01:33:56.139Z,98262.47
2022-12-28T01:36:27.311Z,98265.53
2022-12-28T01:38:57.723Z,98257.00
2022-12-28T01:41:28.033Z,98262.91
2022-12-28T01:43:55.113Z,98254.84
2022-12-28T01:46:42.222Z,98253.84
2022-12-28T01:49:19.253Z,98251.09
2022-12-28T01:52:14.037Z,98248.00
2022-12-28T01:54:53.790Z,98245.63
2022-12-28T01:57:28.776Z,98252.16
2022-12-28T02:00:12.124Z,98247.13
2022-12-28T02:02:51.402Z,98236.56
2022-12-28T02:05:20.392Z,98231.44
2022-12-28T02:08:06.043Z,98229.63
2022-12-28T02:10:42.295Z,98226.94
2022-12-28T02:13:13.625Z,98219.91
2022-12-28T02:15:40.946Z,98224.78
2022-12-28T02:18:09.237Z,98217.94
2022-12-28T02:21:19.152Z,98213.91
2022-12-28T02:24:35.046Z,98205.91
2022-12-28T02:27:39.101Z,98202.13
2022-12-28T02:30:11.602Z,98200.34
2022-12-28T02:33:05.742Z,98182.47
2022-12-28T02:35:54.418Z,98178.88
2022-12-28T02:38:32.012Z,98175.03
2022-12-28T02:41:09.275Z,98162.59
2022-12-28T02:43:37.136Z,98172.16
2022-12-28T02:46:39.923Z,98177.66
2022-12-28T02:49:46.854Z,98181.59
2022-12-28T02:52:51.003Z,98180.13
2022-12-28T02:56:08.687Z,98176.81
2022-12-28T02:59:03.662Z,98171.72
2022-12-28T03:02:13.371Z,98181.47
2022-12-28T03:05:48.280Z,98180.72
2022-12-28T03:08:31.759Z,98178.03
2022-12-28T03:11:16.831Z,98171.78
2022-12-28T03:13:58.415Z,98167.50
2022-12-28T03:17:04.219Z,98166.34
2022-12-28T03:20:03.410Z,98168.25
2022-12-28T03:22:52.472Z,98162.47
2022-12-28T03:25:43.238Z,98160.78
2022-12-28T03:28:37.162Z,98162.59
2022-12-28T03:31:13.599Z,98152.19
2022-12-28T03:33:53.792Z,98155.41
2022-12-28T03:36:33.320Z,98159.25
2022-12-28T03:39:22.899Z,98154.69
2022-12-28T03:42:18.146Z,98157.91
2022-12-28T03:45:12.013Z,98155.94
2022-12-28T03:47:42.821Z,98159.75
2022-12-28T03:50:11.367Z,98148.25
2022-12-28T03:52:39.233Z,98145.44
2022-12-28T03:55:07.222Z,98142.94
2022-12-28T03:57:34.635Z,98139.00
2022-12-28T04:00:05.092Z,98126.69
2022-12-28T04:02:43.426Z,98127.44
2022-12-28T04:05:11.335Z,98117.09
2022-12-28T04:07:40.357Z,98110.13
2022-12-28T04:10:08.237Z,98105.06
2022-12-28T04:12:35.805Z,98103.91
2022-12-28T04:15:23.474Z,98094.78
2022-12-28T04:17:51.010Z,98094.53
2022-12-28T04:20:18.388Z,98100.84
2022-12-28T04:22:45.663Z,98089.66
2022-12-28T04:25:13.135Z,98096.22
2022-12-28T04:27:40.697Z,98098.41
2022-12-28T04:30:17.557Z,98090.69
2022-12-28T04:32:44.858Z,98091.59
2022-12-28T04:35:13.847Z,98087.31
2022-12-28T04:37:48.593Z,98090.59
2022-12-28T04:40:15.875Z,98091.28
2022-12-28T04:42:43.031Z,98086.47
2022-12-28T04:45:10.780Z,98084.84
2022-12-28T04:47:37.997Z,98083.41
2022-12-28T04:50:05.734Z,98086.66
2022-12-28T04:52:34.484Z,98087.38
2022-12-28T04:55:01.804Z,98083.16
2022-12-28T04:57:29.035Z,98081.78
2022-12-28T04:59:56.256Z,98078.03
2022-12-28T05:02:23.567Z,98074.81
2022-12-28T05:04:50.812Z,98081.91
2022-12-28T05:07:18.029Z,98081.28
2022-12-28T05:09:45.270Z,98068.78
2022-12-28T05:12:12.433Z,98062.69
2022-12-28T05:14:39.678Z,98056.81
2022-12-28T05:17:06.913Z,98051.75
2022-12-28T05:19:34.228Z,98063.69
2022-12-28T05:22:01.460Z,98073.72
2022-12-28T05:24:28.822Z,98065.47
2022-12-28T05:26:56.099Z,98059.41
2022-12-28T05:29:23.248Z,98065.47
2022-12-28T05:31:50.660Z,98068.06
2022-12-28T05:34:17.827Z,98059.81
2022-12-28T05:36:45.192Z,98062.78
2022-12-28T05:39:12.460Z,98054.81
2022-12-28T05:41:39.742Z,98049.78
2022-12-28T05:44:07.226Z,98062.44
2022-12-28T05:46:35.303Z,98059.66
2022-12-28T05:49:03.011Z,98050.09
2022-12-28T05:51:33.093Z,98052.69
2022-12-28T05:54:04.532Z,98047.56
2022-12-28T05:56:33.181Z,98042.94
2022-12-28T05:59:03.515Z,98040.88
2022-12-28T06:01:40.534Z,98033.72
2022-12-28T06:04:14.881Z,98028.53
2022-12-28T06:06:42.928Z,98026.94
2022-12-28T06:09:10.236Z,98031.38
2022-12-28T06:11:37.449Z,98013.91
2022-12-28T06:14:06.012Z,98012.94
2022-12-28T06:16:40.707Z,98006.31
2022-12-28T06:19:11.305Z,98011.63
2022-12-28T06:21:40.453Z,98009.63
2022-12-28T06:24:09.204Z,98011.59
2022-12-28T06:26:39.473Z,97998.53
2022-12-28T06:29:07.403Z,98007.22
2022-12-28T06:31:38.538Z,98002.38
2022-12-28T06:34:08.982Z,98005.81
2022-12-28T06:36:43.168Z,98005.41
2022-12-28T06:39:13.819Z,98001.22
2022-12-28T06:41:42.569Z,98004.00
2022-12-28T06:44:12.701Z,97998.88
2022-12-28T06:46:40.652Z,98005.84
2022-12-28T06:49:08.119Z,98001.38
2022-12-28T06:51:40.677Z,97991.28
2022-12-28T06:54:09.173Z,98000.53
2022-12-28T06:56:37.734Z,97998.31
2022-12-28T06:59:05.585Z,97996.13
2022-12-28T07:01:40.378Z,97992.53
2022-12-28T07:04:09.890Z,97991.44
2022-12-28T07:06:41.848Z,97984.94
2022-12-28T07:09:13.585Z,97988.00
2022-12-28T07:11:42.503Z,97990.50
2022-12-28T07:14:10.154Z,97990.50
2022-12-28T07:19:03.838Z,97983.19
2022-12-28T07:21:35.059Z,97990.13
2022-12-28T07:24:03.105Z,97983.44
2022-12-28T07:26:33.712Z,97989.47
2022-12-28T07:29:03.367Z,97982.47
2022-12-28T07:31:41.645Z,97977.25
2022-12-28T07:34:12.487Z,97967.50
2022-12-28T07:36:39.802Z,97966.94
2022-12-28T07:39:07.175Z,97960.34
2022-12-28T07:41:36.428Z,97963.97
2022-12-28T07:44:35.487Z,97961.19
2022-12-28T07:47:05.516Z,97954.16
2022-12-28T07:49:32.780Z,97964.78
2022-12-28T07:52:00.158Z,97953.38
2022-12-28T07:54:27.345Z,97953.34
2022-12-28T07:56:54.580Z,97953.75
2022-12-28T07:59:25.939Z,97963.75
2022-12-28T08:01:56.578Z,97967.34
2022-12-28T08:04:23.864Z,97965.47
2022-12-28T08:06:51.027Z,97952.00
2022-12-28T08:09:18.326Z,97954.94
2022-12-28T08:11:48.701Z,97951.19
2022-12-28T08:14:16.320Z,97950.25
2022-12-28T08:16:44.738Z,97949.75
2022-12-28T08:19:12.446Z,97956.66
2022-12-28T08:21:45.965Z,97962.78
2022-12-28T08:24:19.603Z,97957.97
2022-12-28T08:26:48.674Z,97952.28
2022-12-28T08:29:21.410Z,97956.06
2022-12-28T08:31:49.679Z,97961.56
2022-12-28T08:34:26.738Z,97966.78
2022-12-28T08:36:55.936Z,97962.19
2022-12-28T08:39:23.159Z,97964.44
2022-12-28T08:41:50.473Z,97957.22
2022-12-28T08:44:17.776Z,97960.56
2022-12-28T08:46:45.169Z,97964.28
2022-12-28T08:49:12.935Z,97956.72
2022-12-28T08:51:42.201Z,97955.47
2022-12-28T08:54:12.148Z,97965.47
2022-12-28T08:56:42.442Z,97954.34
2022-12-28T08:59:15.480Z,97961.09
2022-12-28T09:01:44.904Z,97955.22
2022-12-28T09:04:19.894Z,97957.41
2022-12-28T09:06:48.479Z,97965.06
2022-12-28T09:09:19.881Z,97965.25
2022-12-28T09:11:48.776Z,97965.06
2022-12-28T09:14:23.189Z,97964.69
2022-12-28T09:16:53.870Z,97960.72
2022-12-28T09:19:22.274Z,97955.66
2022-12-28T09:21:52.552Z,97942.28
2022-12-28T09:24:20.379Z,97945.19
2022-12-28T09:26:48.774Z,97947.00
2022-12-28T09:29:16.250Z,97944.53
2022-12-28T09:31:44.374Z,97943.94
2022-12-28T09:37:01.097Z,97942.22
2022-12-28T09:39:29.279Z,97946.88
2022-12-28T09:42:17.876Z,97946.19
2022-12-28T09:45:09.183Z,97949.69
2022-12-28T09:47:36.653Z,97943.47
2022-12-28T09:50:19.229Z,97939.28
2022-12-28T09:53:29.636Z,97946.09
2022-12-28T09:56:25.490Z,97939.78
2022-12-28T09:58:53.904Z,97934.19
2022-12-28T10:01:22.834Z,97939.88
2022-12-28T10:03:50.552Z,97930.63
2022-12-28T10:06:28.423Z,97928.50
2022-12-28T10:08:59.274Z,97930.41
2022-12-28T10:11:29.673Z,97927.09
2022-12-28T10:14:01.266Z,97916.78
2022-12-28T10:16:32.982Z,97920.13
2022-12-28T10:19:00.798Z,97923.81
2022-12-28T10:21:33.437Z,97911.28
2022-12-28T10:24:30.477Z,97924.44
2022-12-28T10:26:52.080Z,97918.34
2022-12-28T10:29:22.332Z,97910.84
2022-12-28T10:32:09.652Z,97909.53
2022-12-28T10:34:37.755Z,97904.09
2022-12-28T10:37:27.552Z,97897.66
2022-12-28T10:40:02.285Z,97894.31
2022-12-28T10:42:44.185Z,97881.75
2022-12-28T10:45:22.705Z,97875.16
2022-12-28T10:47:56.565Z,97865.81
2022-12-28T10:50:59.414Z,97859.09
2022-12-28T10:53:42.989Z,97861.47
2022-12-28T10:56:13.242Z,97852.22
2022-12-28T10:58:50.157Z,97840.78
2022-12-28T11:01:27.474Z,97841.38
2022-12-28T11:04:26.108Z,97841.84
2022-12-28T11:07:02.751Z,97836.34
2022-12-28T11:09:33.669Z,97835.28
2022-12-28T11:12:25.953Z,97826.41
2022-12-28T11:14:54.393Z,97822.59
2022-12-28T11:17:27.345Z,97825.03
2022-12-28T11:20:20.697Z,97822.19
2022-12-28T11:22:48.375Z,97819.34
2022-12-28T11:25:19.189Z,97820.13
2022-12-28T11:27:47.935Z,97829.06
2022-12-28T11:30:20.180Z,97813.75
2022-12-28T11:32:58.971Z,97823.22
2022-12-28T11:35:33.527Z,97813.13
2022-12-28T11:38:04.379Z,97810.22
2022-12-28T11:40:52.670Z,97811.75
2022-12-28T11:43:50.472Z,97800.81
2022-12-28T11:46:23.678Z,97789.88
2022-12-28T11:49:04.910Z,97779.97
2022-12-28T11:51:37.794Z,97772.28
2022-12-28T11:54:39.022Z,97770.72
2022-12-28T11:57:09.121Z,97764.31
2022-12-28T11:59:36.840Z,97756.66
2022-12-28T12:02:26.910Z,97758.50
2022-12-28T12:04:54.151Z,97755.75
2022-12-28T12:07:46.980Z,97755.75
2022-12-28T12:10:36.676Z,97752.91
2022-12-28T12:13:26.777Z,97760.66
2022-12-28T12:16:07.081Z,97753.22
2022-12-28T12:18:55.560Z,97749.03
2022-12-28T12:21:35.544Z,97738.41
2022-12-28T12:24:21.036Z,97744.91
2022-12-28T12:26:58.760Z,97735.09
2022-12-28T12:29:38.403Z,97720.69
2022-12-28T12:32:28.250Z,97728.00
2022-12-28T12:35:07.265Z,97717.53
2022-12-28T12:37:59.344Z,97726.88
2022-12-28T12:40:58.917Z,97707.56
2022-12-28T12:43:47.012Z,97710.28
2022-12-28T12:46:46.736Z,97699.09
2022-12-28T12:49:30.062Z,97706.59
2022-12-28T12:51:57.242Z,97712.41
2022-12-28T12:54:31.919Z,97714.78
2022-12-28T12:57:11.368Z,97707.00
2022-12-28T13:00:17.065Z,97699.34
2022-12-28T13:02:56.424Z,97698.06
2022-12-28T13:05:28.765Z,97696.50
2022-12-28T13:07:58.820Z,97685.66
2022-12-28T13:10:34.878Z,97692.50
2022-12-28T13:13:04.911Z,97685.66
2022-12-28T13:15:32.441Z,97677.19
2022-12-28T13:18:44.684Z,97674.97
2022-12-28T13:21:21.301Z,97665.69
2022-12-28T13:23:50.363Z,97669.03
2022-12-28T13:26:19.058Z,97671.84
2022-12-28T13:29:01.192Z,97662.00
2022-12-28T13:31:42.302Z,97659.41
2022-12-28T13:34:30.767Z,97655.91
2022-12-28T13:37:22.669Z,97643.00
2022-12-28T13:39:50.356Z,97644.09
2022-12-28T13:42:23.367Z,97644.63
2022-12-28T13:45:00.672Z,97645.41
2022-12-28T13:47:41.300Z,97645.56
2022-12-28T13:50:16.377Z,97644.84
2022-12-28T13:53:11.789Z,97645.47
2022-12-28T13:55:46.234Z,97643.66
2022-12-28T13:58:23.500Z,97646.06
2022-12-28T14:00:53.906Z,97647.00
2022-12-28T14:03:22.381Z,97645.41
2022-12-28T14:06:00.239Z,97642.47
2022-12-28T14:08:29.607Z,97645.34
2022-12-28T14:10:57.711Z,97646.50
2022-12-28T14:13:26.021Z,97645.72
2022-12-28T14:15:55.259Z,97650.88
2022-12-28T14:18:22.913Z,97660.69
2022-12-28T14:20:56.372Z,97658.66
2022-12-28T14:23:24.981Z,97664.03
2022-12-28T14:25:55.252Z,97677.03
2022-12-28T14:28:44.221Z,97667.91
2022-12-28T14:31:19.592Z,97661.97
2022-12-28T14:33:50.064Z,97658.59
2022-12-28T14:36:22.503Z,97662.34
2022-12-28T14:38:57.274Z,97655.72
2022-12-28T14:41:38.663Z,97654.22
2022-12-28T14:44:15.498Z,97648.44
2022-12-28T14:46:45.025Z,97648.44
2022-12-28T14:49:44.857Z,97640.13
2022-12-28T14:52:12.155Z,97650.13
2022-12-28T14:54:51.471Z,97653.56
2022-12-28T14:57:40.597Z,97644.31
2022-12-28T15:00:33.345Z,97645.47
2022-12-28T15:03:21.574Z,97638.03
2022-12-28T15:05:54.693Z,97630.84
2022-12-28T15:08:23.202Z,97628.81
2022-12-28T15:11:00.644Z,97632.91
2022-12-28T15:13:28.130Z,97632.00
2022-12-28T15:16:06.870Z,97627.34
2022-12-28T15:18:34.396Z,97630.53
2022-12-28T15:21:05.854Z,97628.22
2022-12-28T15:23:34.027Z,97625.63
2022-12-28T15:26:13.666Z,97621.78
2022-12-28T15:28:41.627Z,97626.75
2022-12-28T15:31:13.684Z,97622.22
2022-12-28T15:33:41.170Z,97610.47
2022-12-28T15:36:17.801Z,97618.22
2022-12-28T15:38:47.735Z,97611.50
2022-12-28T15:41:34.801Z,97610.03
2022-12-28T15:44:02.823Z,97610.25
2022-12-28T15:46:30.177Z,97607.41
2022-12-28T15:48:57.857Z,97601.25
2022-12-28T15:51:25.328Z,97612.06
2022-12-28T15:53:52.951Z,97604.53
2022-12-28T15:56:28.224Z,97597.69
2022-12-28T15:58:58.727Z,97597.81
2022-12-28T16:01:29.996Z,97599.66
2022-12-28T16:04:01.369Z,97595.88
2022-12-28T16:06:31.904Z,97600.09
2022-12-28T16:09:01.210Z,97594.41
2022-12-28T16:11:30.452Z,97596.56
2022-12-28T16:14:02.389Z,97596.00
2022-12-28T16:16:34.532Z,97599.75
2022-12-28T16:19:02.588Z,97611.38
2022-12-28T16:21:30.371Z,97595.78
2022-12-28T16:24:00.813Z,97598.16
2022-12-28T16:26:28.548Z,97605.78
2022-12-28T16:28:57.666Z,97596.44
2022-12-28T16:31:37.842Z,97588.91
2022-12-28T16:34:17.377Z,97599.88
2022-12-28T16:36:48.756Z,97594.84
2022-12-28T16:39:18.142Z,97594.53
2022-12-28T16:41:45.331Z,97588.81
2022-12-28T16:44:17.004Z,97591.91
2022-12-28T16:46:44.364Z,97584.47
2022-12-28T16:49:11.935Z,97591.41
2022-12-28T16:51:41.964Z,97599.97
2022-12-28T16:54:15.002Z,97586.72
2022-12-28T16:56:43.662Z,97600.19
2022-12-28T16:59:18.875Z,97604.06
2022-12-28T17:01:46.724Z,97607.03
2022-12-28T17:04:14.927Z,97601.34
2022-12-28T17:06:44.080Z,97603.50
2022-12-28T17:09:11.326Z,97594.84
2022-12-28T17:11:38.614Z,97603.50
2022-12-28T17:14:10.797Z,97593.34
2022-12-28T17:16:39.049Z,97602.81
2022-12-28T17:19:07.075Z,97599.03
2022-12-28T17:21:35.234Z,97599.41
2022-12-28T17:24:03.236Z,97586.72
2022-12-28T17:26:30.577Z,97588.00
2022-12-28T17:28:59.419Z,97582.44
2022-12-28T17:31:26.986Z,97583.44
2022-12-28T17:34:00.556Z,97588.78
2022-12-28T17:36:28.043Z,97581.38
2022-12-28T17:38:55.310Z,97574.72
2022-12-28T17:41:27.759Z,97579.91
2022-12-28T17:43:58.526Z,97578.53
2022-12-28T17:46:27.736Z,97571.84
2022-12-28T17:48:57.645Z,97565.84
2022-12-28T17:51:25.669Z,97561.88
2022-12-28T17:53:56.052Z,97563.81
2022-12-28T17:56:23.631Z,97560.28
2022-12-28T17:58:56.573Z,97553.81
2022-12-28T18:01:25.218Z,97559.25
2022-12-28T18:03:52.823Z,97556.19
2022-12-28T18:06:20.428Z,97551.28
2022-12-28T18:08:48.075Z,97560.03
2022-12-28T18:11:16.221Z,97558.53
2022-12-28T18:13:46.584Z,97546.13
2022-12-28T18:16:19.046Z,97544.06
2022-12-28T18:18:46.684Z,97544.53
2022-12-28T18:21:21.440Z,97557.16
2022-12-28T18:23:52.480Z,97549.66
2022-12-28T18:26:26.804Z,97556.63
2022-12-28T18:28:55.927Z,97560.00
2022-12-28T18:31:25.231Z,97558.22
2022-12-28T18:33:53.239Z,97567.19
2022-12-28T18:36:20.595Z,97573.19
2022-12-28T18:38:48.639Z,97572.50
2022-12-28T18:41:22.496Z,97571.47
2022-12-28T18:43:51.538Z,97576.00
2022-12-28T18:46:19.321Z,97574.03
2022-12-28T18:48:46.699Z,97576.34
2022-12-28T18:51:18.493Z,97572.91
2022-12-28T18:53:46.617Z,97577.72
2022-12-28T18:56:18.128Z,97576.72
2022-12-28T18:58:50.927Z,97569.91
2022-12-28T19:04:10.656Z,97578.44
2022-12-28T19:06:38.675Z,97569.72
2022-12-28T19:09:08.058Z,97568.59
2022-12-28T19:11:37.031Z,97566.63
2022-12-28T19:14:06.053Z,97562.75
2022-12-28T19:16:34.880Z,97560.94
2022-12-28T19:19:02.734Z,97560.03
2022-12-28T19:21:42.288Z,97565.97
2022-12-28T19:24:16.972Z,97569.94
2022-12-28T19:26:45.996Z,97568.34
2022-12-28T19:29:15.724Z,97570.25
2022-12-28T19:31:43.641Z,97564.94
2022-12-28T19:34:11.091Z,97566.47
2022-12-28T19:36:38.586Z,97572.63
2022-12-28T19:39:05.973Z,97556.25
2022-12-28T19:41:33.680Z,97559.00
2022-12-28T19:44:01.720Z,97559.28
2022-12-28T19:46:32.413Z,97564.00
2022-12-28T19:49:02.549Z,97554.13
2022-12-28T19:51:32.481Z,97546.50
2022-12-28T19:54:01.675Z,97548.41
2022-12-28T19:56:29.382Z,97534.91
2022-12-28T19:59:05.125Z,97535.09
2022-12-28T20:01:35.298Z,97539.44
2022-12-28T20:04:08.863Z,97524.31
2022-12-28T20:06:41.062Z,97521.13
2022-12-28T20:09:08.544Z,97521.34
2022-12-28T20:11:36.551Z,97528.69
2022-12-28T20:14:04.334Z,97523.59
2022-12-28T20:16:33.985Z,97513.00
2022-12-28T20:19:01.864Z,97508.31
2022-12-28T20:21:29.450Z,97514.16
2022-12-28T20:23:56.922Z,97511.81
2022-12-28T20:26:25.202Z,97511.03
2022-12-28T20:28:53.203Z,97504.09
2022-12-28T20:31:20.737Z,97496.34
2022-12-28T20:33:48.649Z,97504.31
2022-12-28T20:36:21.639Z,97511.22
2022-12-28T20:38:50.279Z,97505.09
2022-12-28T20:41:43.384Z,97505.78
2022-12-28T20:44:14.277Z,97504.44
2022-12-28T20:46:45.141Z,97502.72
2022-12-28T20:49:12.835Z,97500.66
2022-12-28T20:51:42.693Z,97489.25
2022-12-28T20:54:11.091Z,97484.06
2022-12-28T20:56:39.106Z,97478.25
2022-12-28T20:59:07.363Z,97479.25
2022-12-28T21:01:36.644Z,97476.28
2022-12-28T21:04:05.470Z,97473.81
2022-12-28T21:06:33.659Z,97466.56
2022-12-28T21:09:01.763Z,97469.97
2022-12-28T21:11:31.148Z,97465.81
2022-12-28T21:13:58.552Z,97465.66
2022-12-28T21:16:26.281Z,97465.63
2022-12-28T21:18:53.574Z,97464.41
2022-12-28T21:21:22.502Z,97469.72
2022-12-28T21:23:50.238Z,97461.06
2022-12-28T21:26:19.935Z,97454.63
2022-12-28T21:28:48.411Z,97452.16
2022-12-28T21:31:16.410Z,97447.66
2022-12-28T21:33:44.022Z,97444.91
2022-12-28T21:36:16.333Z,97433.75
2022-12-28T21:38:45.740Z,97436.69
2022-12-28T21:41:41.812Z,97439.41
2022-12-28T21:44:14.250Z,97431.19
2022-12-28T21:46:42.887Z,97433.13
2022-12-28T21:49:10.432Z,97427.75
2022-12-28T21:51:39.393Z,97427.72
2022-12-28T21:54:08.246Z,97431.66
2022-12-28T21:56:37.105Z,97434.25
2022-12-28T21:59:05.435Z,97420.41
2022-12-28T22:01:52.529Z,97413.63
2022-12-28T22:04:40.999Z,97407.22
2022-12-28T22:07:11.696Z,97404.22
2022-12-28T22:10:00.092Z,97404.34
2022-12-28T22:12:39.665Z,97409.78
2022-12-28T22:15:35.865Z,97391.81
2022-12-28T22:19:01.045Z,97396.09
2022-12-28T22:21:09.996Z,97390.56
2022-12-28T22:23:37.359Z,97392.09
2022-12-28T22:26:04.875Z,97384.00
2022-12-28T22:28:32.219Z,97365.69
2022-12-28T22:31:03.915Z,97371.22
2022-12-28T22:33:31.531Z,97366.09
2022-12-28T22:36:08.929Z,97366.13
2022-12-28T22:38:36.183Z,97368.91
2022-12-28T22:41:03.585Z,97371.78
2022-12-28T22:43:30.983Z,97371.34
2022-12-28T22:46:08.188Z,97377.50
2022-12-28T22:48:35.719Z,97380.31
2022-12-28T22:51:09.799Z,97389.47
2022-12-28T22:53:37.692Z,97384.94
2022-12-28T22:56:20.001Z,97390.06
2022-12-28T22:58:48.770Z,97395.06
2022-12-28T23:01:19.107Z,97400.66
2022-12-28T23:03:48.593Z,97396.44
2022-12-28T23:06:19.642Z,97390.53
2022-12-28T23:08:47.602Z,97387.91
2022-12-28T23:11:36.722Z,97384.00
2022-12-28T23:14:36.313Z,97382.44
2022-12-28T23:17:09.711Z,97369.47
2022-12-28T23:19:55.800Z,97376.50
2022-12-28T23:22:46.819Z,97364.44
2022-12-28T23:25:37.718Z,97364.34
2022-12-28T23:28:11.823Z,97360.22
2022-12-28T23:30:44.219Z,97353.72
2022-12-28T23:33:11.740Z,97351.09
2022-12-28T23:35:39.295Z,97356.31
2022-12-28T23:38:06.647Z,97346.63
2022-12-28T23:40:33.955Z,97353.50
2022-12-28T23:43:01.228Z,97349.66
2022-12-28T23:45:28.612Z,97353.75
2022-12-28T23:47:56.003Z,97353.03
2022-12-28T23:50:23.403Z,97351.56
2022-12-28T23:52:50.717Z,97354.63
2022-12-28T23:55:18.216Z,97357.50
2022-12-28T23:57:45.561Z,97367.03
